createdAt,value
2023-11-23T00:00:12.104Z,32.03
2023-11-23T00:02:39.846Z,30.43
2023-11-23T00:05:10.614Z,33.20
2023-11-23T00:07:39.447Z,35.80
2023-11-23T00:10:12.446Z,30.67
2023-11-23T00:12:39.828Z,34.33
2023-11-23T00:15:08.364Z,34.17
2023-11-23T00:17:37.111Z,32.77
2023-11-23T00:20:08.096Z,33.73
2023-11-23T00:22:35.974Z,31.17
2023-11-23T00:25:04.566Z,32.53
2023-11-23T00:27:31.225Z,36.20
2023-11-23T00:29:58.000Z,33.20
2023-11-23T00:32:24.903Z,33.23
2023-11-23T00:34:52.301Z,34.43
2023-11-23T00:37:19.217Z,33.33
2023-11-23T00:39:45.974Z,38.07
2023-11-23T00:42:12.762Z,33.07
2023-11-23T00:44:40.205Z,39.27
2023-11-23T00:47:07.707Z,35.00
2023-11-23T00:49:37.183Z,36.53
2023-11-23T00:52:04.177Z,34.00
2023-11-23T00:54:31.541Z,35.70
2023-11-23T00:56:58.254Z,35.87
2023-11-23T00:59:25.100Z,36.53
2023-11-23T01:01:51.940Z,34.43
2023-11-23T01:04:18.981Z,31.20
2023-11-23T01:06:45.709Z,35.13
2023-11-23T01:09:12.804Z,34.00
2023-11-23T01:11:40.187Z,34.47
2023-11-23T01:14:09.514Z,37.47
2023-11-23T01:16:36.465Z,33.97
2023-11-23T01:19:03.224Z,34.03
2023-11-23T01:21:30.024Z,31.60
2023-11-23T01:23:56.702Z,30.23
2023-11-23T01:26:23.420Z,33.30
2023-11-23T01:28:50.134Z,29.90
2023-11-23T01:31:16.882Z,31.93
2023-11-23T01:33:43.616Z,32.03
2023-11-23T01:36:10.465Z,30.27
2023-11-23T01:38:37.569Z,30.27
2023-11-23T01:41:04.477Z,31.53
2023-11-23T01:43:32.879Z,32.53
2023-11-23T01:45:59.609Z,32.63
2023-11-23T01:48:26.278Z,31.03
2023-11-23T01:50:53.004Z,29.93
2023-11-23T01:53:19.654Z,29.80
2023-11-23T01:55:47.663Z,30.13
2023-11-23T01:58:15.376Z,24.50
2023-11-23T02:00:42.016Z,25.73
2023-11-23T02:03:08.738Z,23.37
2023-11-23T02:05:35.452Z,28.90
2023-11-23T02:08:02.129Z,27.67
2023-11-23T02:10:29.113Z,26.03
2023-11-23T02:12:56.969Z,27.97
2023-11-23T02:15:23.707Z,29.37
2023-11-23T02:18:03.488Z,29.77
2023-11-23T02:20:32.078Z,28.77
2023-11-23T02:23:01.257Z,26.47
2023-11-23T02:25:28.373Z,29.00
2023-11-23T02:27:55.019Z,28.77
2023-11-23T02:30:21.777Z,27.00
2023-11-23T02:32:49.414Z,28.73
2023-11-23T02:35:16.361Z,27.30
2023-11-23T02:37:43.232Z,26.23
2023-11-23T02:40:12.202Z,27.63
2023-11-23T02:42:41.855Z,25.40
2023-11-23T02:45:10.324Z,26.33
2023-11-23T02:47:37.038Z,23.53
2023-11-23T02:50:05.640Z,24.30
2023-11-23T02:52:32.511Z,25.87
2023-11-23T02:54:59.157Z,24.53
2023-11-23T02:57:25.865Z,22.67
2023-11-23T02:59:52.541Z,24.23
2023-11-23T03:02:19.454Z,26.57
2023-11-23T03:04:46.270Z,27.63
2023-11-23T03:07:13.003Z,24.90
2023-11-23T03:09:39.635Z,26.60
2023-11-23T03:12:06.587Z,27.40
2023-11-23T03:14:35.621Z,28.50
2023-11-23T03:17:04.335Z,28.67
2023-11-23T03:19:31.053Z,27.13
2023-11-23T03:21:58.821Z,29.20
2023-11-23T03:24:25.675Z,29.60
2023-11-23T03:26:52.540Z,26.00
2023-11-23T03:29:19.275Z,26.50
2023-11-23T03:31:46.203Z,28.97
2023-11-23T03:34:13.038Z,27.63
2023-11-23T03:36:39.798Z,29.20
2023-11-23T03:39:08.166Z,28.97
2023-11-23T03:41:35.422Z,29.37
2023-11-23T03:44:02.162Z,30.70
2023-11-23T03:46:28.910Z,30.23
2023-11-23T03:48:55.851Z,30.53
2023-11-23T03:51:22.524Z,29.30
2023-11-23T03:53:49.298Z,29.47
2023-11-23T03:56:19.797Z,34.40
2023-11-23T03:58:46.618Z,31.07
2023-11-23T04:01:13.353Z,30.63
2023-11-23T04:03:46.098Z,28.27
2023-11-23T04:06:13.031Z,33.80
2023-11-23T04:08:42.779Z,32.83
2023-11-23T04:11:10.686Z,30.10
2023-11-23T04:13:37.483Z,31.23
2023-11-23T04:16:04.599Z,31.27
2023-11-23T04:18:31.328Z,32.67
2023-11-23T04:20:58.218Z,30.33
2023-11-23T04:23:25.056Z,31.23
2023-11-23T04:25:51.742Z,28.13
2023-11-23T04:28:18.463Z,29.47
2023-11-23T04:30:45.304Z,29.17
2023-11-23T04:33:12.360Z,29.33
2023-11-23T04:35:39.252Z,32.60
2023-11-23T04:38:06.040Z,32.97
2023-11-23T04:40:32.737Z,32.97
2023-11-23T04:42:59.466Z,32.53
2023-11-23T04:45:26.273Z,30.87
2023-11-23T04:47:53.535Z,32.53
2023-11-23T04:50:22.456Z,30.00
2023-11-23T04:52:49.445Z,30.40
2023-11-23T04:55:16.121Z,30.53
2023-11-23T04:57:43.183Z,25.90
2023-11-23T05:00:12.098Z,29.80
2023-11-23T05:02:44.050Z,28.87
2023-11-23T05:05:13.377Z,35.03
2023-11-23T05:07:40.496Z,32.17
2023-11-23T05:10:09.465Z,31.73
2023-11-23T05:12:36.632Z,30.37
2023-11-23T05:15:04.085Z,31.13
2023-11-23T05:17:31.565Z,31.03
2023-11-23T05:19:58.227Z,32.13
2023-11-23T05:22:25.527Z,34.67
2023-11-23T05:24:52.214Z,34.30
2023-11-23T05:27:18.984Z,35.60
2023-11-23T05:29:47.622Z,35.80
2023-11-23T05:32:16.136Z,36.83
2023-11-23T05:34:42.777Z,35.30
2023-11-23T05:37:09.447Z,38.27
2023-11-23T05:39:36.372Z,35.00
2023-11-23T05:42:04.076Z,32.80
2023-11-23T05:44:31.575Z,35.83
2023-11-23T05:46:58.289Z,37.47
2023-11-23T05:49:24.957Z,36.60
2023-11-23T05:51:51.679Z,40.77
2023-11-23T05:54:18.501Z,38.43
2023-11-23T05:56:46.628Z,38.53
2023-11-23T05:59:13.398Z,38.53
2023-11-23T06:01:40.161Z,37.97
2023-11-23T06:04:07.194Z,39.40
2023-11-23T06:06:33.956Z,38.87
2023-11-23T06:09:00.709Z,37.10
2023-11-23T06:11:27.471Z,38.40
2023-11-23T06:13:54.581Z,42.00
2023-11-23T06:16:21.257Z,40.53
2023-11-23T06:18:48.258Z,39.80
2023-11-23T06:21:14.992Z,39.57
2023-11-23T06:23:41.693Z,40.00
2023-11-23T06:26:08.792Z,38.57
2023-11-23T06:28:35.421Z,41.17
2023-11-23T06:31:02.066Z,39.10
2023-11-23T06:33:28.897Z,45.43
2023-11-23T06:35:56.349Z,42.60
2023-11-23T06:38:24.834Z,47.57
2023-11-23T06:40:52.230Z,47.90
2023-11-23T06:43:18.960Z,41.97
2023-11-23T06:45:45.787Z,44.27
2023-11-23T06:48:12.908Z,49.00
2023-11-23T06:50:39.785Z,43.20
2023-11-23T06:53:06.946Z,45.00
2023-11-23T06:55:34.551Z,42.57
2023-11-23T06:58:01.181Z,47.67
2023-11-23T07:00:27.903Z,40.03
2023-11-23T07:02:57.292Z,39.30
2023-11-23T07:05:25.619Z,43.90
2023-11-23T07:07:53.144Z,42.03
2023-11-23T07:10:21.482Z,44.63
2023-11-23T07:12:49.563Z,40.83
2023-11-23T07:15:18.615Z,41.83
2023-11-23T07:17:45.888Z,44.67
2023-11-23T07:20:16.185Z,39.87
2023-11-23T07:22:43.043Z,42.00
2023-11-23T07:25:10.510Z,44.20
2023-11-23T07:27:38.282Z,41.30
2023-11-23T07:30:07.869Z,40.00
2023-11-23T07:32:35.142Z,40.40
2023-11-23T07:35:02.326Z,40.87
2023-11-23T07:37:30.197Z,42.63
2023-11-23T07:39:58.087Z,38.53
2023-11-23T07:42:26.609Z,41.20
2023-11-23T07:44:53.601Z,39.20
2023-11-23T07:47:21.171Z,39.70
2023-11-23T07:49:47.955Z,40.30
2023-11-23T07:52:15.419Z,42.43
2023-11-23T07:54:42.358Z,39.13
2023-11-23T07:57:09.044Z,39.83
2023-11-23T07:59:37.892Z,40.20
2023-11-23T08:02:06.189Z,39.20
2023-11-23T08:04:33.174Z,40.93
2023-11-23T08:07:00.484Z,38.13
2023-11-23T08:09:27.613Z,40.37
2023-11-23T08:11:57.464Z,39.80
2023-11-23T08:14:24.502Z,42.73
2023-11-23T08:16:51.379Z,41.13
2023-11-23T08:19:18.481Z,39.27
2023-11-23T08:21:49.143Z,40.13
2023-11-23T08:24:18.720Z,39.50
2023-11-23T08:26:45.758Z,45.10
2023-11-23T08:29:12.972Z,40.03
2023-11-23T08:31:41.080Z,41.13
2023-11-23T08:34:09.115Z,41.93
2023-11-23T08:36:37.324Z,41.57
2023-11-23T08:39:04.785Z,39.73
2023-11-23T08:41:32.061Z,43.47
2023-11-23T08:43:59.933Z,43.73
2023-11-23T08:46:26.903Z,41.60
2023-11-23T08:48:53.721Z,37.83
2023-11-23T08:51:20.517Z,39.67
2023-11-23T08:53:47.781Z,40.17
2023-11-23T08:56:15.324Z,41.57
2023-11-23T08:58:43.505Z,39.70
2023-11-23T09:01:10.197Z,38.30
2023-11-23T09:03:37.018Z,39.13
2023-11-23T09:06:04.331Z,35.23
2023-11-23T09:08:31.164Z,39.33
2023-11-23T09:10:58.434Z,36.83
2023-11-23T09:13:27.355Z,37.37
2023-11-23T09:15:57.448Z,35.97
2023-11-23T09:18:24.298Z,32.57
2023-11-23T09:21:00.242Z,34.23
2023-11-23T09:23:54.947Z,33.13
2023-11-23T09:26:21.843Z,33.47
2023-11-23T09:28:48.987Z,34.67
2023-11-23T09:31:19.346Z,30.23
2023-11-23T09:33:46.326Z,32.53
2023-11-23T09:36:13.518Z,32.60
2023-11-23T09:38:40.247Z,31.47
2023-11-23T09:41:08.129Z,32.77
2023-11-23T09:43:34.830Z,33.67
2023-11-23T09:46:03.006Z,32.90
2023-11-23T09:49:07.916Z,29.07
2023-11-23T09:51:36.564Z,31.17
2023-11-23T09:54:04.535Z,27.70
2023-11-23T09:56:36.313Z,30.17
2023-11-23T09:59:03.133Z,29.60
2023-11-23T10:01:30.123Z,31.23
2023-11-23T10:03:57.233Z,191.50
2023-11-23T10:06:24.475Z,28.50
2023-11-23T10:08:51.245Z,28.23
2023-11-23T10:11:21.134Z,44.67
2023-11-23T10:13:51.356Z,28.97
2023-11-23T10:16:36.121Z,24.00
2023-11-23T10:19:08.186Z,26.10
2023-11-23T10:21:35.663Z,27.50
2023-11-23T10:24:09.281Z,27.50
2023-11-23T10:26:36.377Z,27.93
2023-11-23T10:29:03.432Z,29.50
2023-11-23T10:31:31.966Z,27.93
2023-11-23T10:33:59.617Z,28.17
2023-11-23T10:36:26.382Z,23.73
2023-11-23T10:38:53.105Z,24.07
2023-11-23T10:41:19.773Z,24.70
2023-11-23T10:43:49.840Z,23.07
2023-11-23T10:46:18.058Z,25.50
2023-11-23T10:48:45.783Z,26.23
2023-11-23T10:51:12.539Z,24.67
2023-11-23T10:53:41.160Z,24.50
2023-11-23T10:56:17.725Z,22.50
2023-11-23T10:58:44.411Z,166.83
2023-11-23T11:01:11.770Z,31.20
2023-11-23T11:03:39.622Z,24.53
2023-11-23T11:06:11.542Z,24.73
2023-11-23T11:08:39.441Z,26.47
2023-11-23T11:11:11.688Z,64.70
2023-11-23T11:13:45.743Z,21.97
2023-11-23T11:16:16.889Z,34.17
2023-11-23T11:18:53.731Z,22.77
2023-11-23T11:21:22.047Z,39.90
2023-11-23T11:23:53.059Z,25.97
2023-11-23T11:26:29.284Z,20.40
2023-11-23T11:28:59.169Z,29.40
2023-11-23T11:31:33.214Z,23.37
2023-11-23T11:34:01.565Z,35.27
2023-11-23T11:36:32.278Z,21.37
2023-11-23T11:39:00.851Z,22.07
2023-11-23T11:41:31.057Z,20.67
2023-11-23T11:43:58.394Z,21.57
2023-11-23T11:46:28.439Z,23.90
2023-11-23T11:49:02.438Z,22.47
2023-11-23T11:51:31.137Z,19.80
2023-11-23T11:54:01.346Z,21.00
2023-11-23T11:56:29.419Z,23.17
2023-11-23T11:58:58.211Z,25.57
2023-11-23T12:01:26.445Z,21.40
2023-11-23T12:03:54.894Z,20.90
2023-11-23T12:06:21.742Z,20.40
2023-11-23T12:08:48.447Z,25.60
2023-11-23T12:11:28.078Z,20.57
2023-11-23T12:13:57.074Z,20.20
2023-11-23T12:16:33.087Z,20.90
2023-11-23T12:19:00.187Z,20.53
2023-11-23T12:21:26.989Z,20.10
2023-11-23T12:23:54.244Z,18.43
2023-11-23T12:26:20.888Z,18.87
2023-11-23T12:28:50.931Z,18.97
2023-11-23T12:31:18.943Z,18.47
2023-11-23T12:33:45.815Z,18.83
2023-11-23T12:36:13.692Z,19.37
2023-11-23T12:38:40.540Z,19.20
2023-11-23T12:41:08.591Z,17.17
2023-11-23T12:43:36.292Z,18.20
2023-11-23T12:46:03.347Z,20.47
2023-11-23T12:48:30.222Z,17.67
2023-11-23T12:50:57.757Z,17.20
2023-11-23T12:55:51.207Z,17.50
2023-11-23T12:58:20.221Z,16.00
2023-11-23T13:00:48.362Z,16.63
2023-11-23T13:03:15.446Z,22.13
2023-11-23T13:05:42.544Z,17.50
2023-11-23T13:08:09.654Z,17.57
2023-11-23T13:10:37.252Z,18.00
2023-11-23T13:13:06.239Z,18.03
2023-11-23T13:15:34.469Z,17.23
2023-11-23T13:18:01.374Z,17.53
2023-11-23T13:20:28.391Z,17.90
2023-11-23T13:22:55.697Z,17.50
2023-11-23T13:25:22.605Z,16.67
2023-11-23T13:27:52.697Z,15.77
2023-11-23T13:30:19.440Z,17.97
2023-11-23T13:32:47.520Z,15.63
2023-11-23T13:35:14.392Z,17.87
2023-11-23T13:37:41.043Z,17.23
2023-11-23T13:40:08.576Z,17.37
2023-11-23T13:42:35.492Z,16.20
2023-11-23T13:45:03.588Z,15.80
2023-11-23T13:47:30.369Z,18.47
2023-11-23T13:49:57.056Z,15.73
2023-11-23T13:52:23.744Z,15.37
2023-11-23T13:54:50.480Z,15.17
2023-11-23T13:57:17.393Z,17.43
2023-11-23T13:59:45.162Z,14.20
2023-11-23T14:02:14.117Z,15.23
2023-11-23T14:04:41.582Z,16.53
2023-11-23T14:07:08.683Z,15.13
2023-11-23T14:09:35.462Z,16.73
2023-11-23T14:12:04.859Z,15.63
2023-11-23T14:14:31.830Z,15.87
2023-11-23T14:16:58.793Z,13.03
2023-11-23T14:19:26.247Z,16.03
2023-11-23T14:21:53.042Z,15.97
2023-11-23T14:24:21.374Z,14.43
2023-11-23T14:26:50.864Z,14.57
2023-11-23T14:29:17.950Z,13.20
2023-11-23T14:31:45.747Z,20.20
2023-11-23T14:34:12.478Z,15.37
2023-11-23T14:36:39.248Z,32.63
2023-11-23T14:39:06.990Z,25.23
2023-11-23T14:41:33.721Z,60.87
2023-11-23T14:44:00.346Z,30.73
2023-11-23T14:46:26.951Z,15.87
2023-11-23T14:48:53.706Z,13.33
2023-11-23T14:51:21.368Z,19.33
2023-11-23T14:53:51.747Z,14.20
2023-11-23T14:56:19.755Z,13.97
2023-11-23T14:58:46.773Z,13.07
2023-11-23T15:01:13.576Z,15.17
2023-11-23T15:03:40.316Z,15.27
2023-11-23T15:06:07.315Z,12.40
2023-11-23T15:08:33.964Z,12.63
2023-11-23T15:11:00.719Z,13.40
2023-11-23T15:13:35.987Z,14.03
2023-11-23T15:16:05.915Z,13.23
2023-11-23T15:18:32.750Z,14.77
2023-11-23T15:21:00.588Z,14.73
2023-11-23T15:23:27.337Z,12.20
2023-11-23T15:25:55.427Z,12.00
2023-11-23T15:28:22.856Z,13.47
2023-11-23T15:30:49.873Z,11.83
2023-11-23T15:33:17.806Z,12.90
2023-11-23T15:35:45.206Z,13.00
2023-11-23T15:38:11.874Z,12.53
2023-11-23T15:40:38.526Z,13.53
2023-11-23T15:43:05.372Z,13.70
2023-11-23T15:45:32.168Z,11.60
2023-11-23T15:47:58.850Z,11.30
2023-11-23T15:50:29.357Z,12.00
2023-11-23T15:52:57.906Z,14.10
2023-11-23T15:55:25.441Z,14.03
2023-11-23T15:57:52.242Z,11.60
2023-11-23T16:00:24.872Z,12.57
2023-11-23T16:02:51.715Z,12.73
2023-11-23T16:05:25.851Z,12.43
2023-11-23T16:07:53.521Z,11.63
2023-11-23T16:10:20.659Z,12.37
2023-11-23T16:12:47.983Z,12.10
2023-11-23T16:15:14.930Z,13.37
2023-11-23T16:17:41.667Z,11.63
2023-11-23T16:20:12.489Z,10.93
2023-11-23T16:22:39.138Z,10.37
2023-11-23T16:25:08.414Z,11.60
2023-11-23T16:27:35.201Z,10.00
2023-11-23T16:30:02.620Z,10.33
2023-11-23T16:32:29.316Z,11.40
2023-11-23T16:34:56.468Z,9.53
2023-11-23T16:37:23.157Z,11.17
2023-11-23T16:39:50.193Z,10.43
2023-11-23T16:42:16.971Z,9.53
2023-11-23T16:44:43.674Z,10.97
2023-11-23T16:47:12.103Z,9.37
2023-11-23T16:49:38.963Z,10.47
2023-11-23T16:52:06.108Z,9.70
2023-11-23T16:54:32.865Z,10.57
2023-11-23T16:56:59.673Z,10.23
2023-11-23T16:59:26.318Z,9.17
2023-11-23T17:01:53.060Z,9.30
2023-11-23T17:04:19.989Z,10.53
2023-11-23T17:06:46.745Z,9.90
2023-11-23T17:09:14.083Z,12.13
2023-11-23T17:11:40.876Z,10.47
2023-11-23T17:14:10.971Z,10.00
2023-11-23T17:16:39.417Z,9.67
2023-11-23T17:19:06.227Z,13.67
2023-11-23T17:21:32.980Z,11.80
2023-11-23T17:24:00.118Z,9.73
2023-11-23T17:26:26.761Z,8.67
2023-11-23T17:28:55.685Z,10.27
2023-11-23T17:31:22.384Z,8.97
2023-11-23T17:33:49.045Z,9.33
2023-11-23T17:36:15.832Z,8.50
2023-11-23T17:38:42.550Z,11.25
2023-11-23T17:41:11.531Z,12.83
2023-11-23T17:43:38.276Z,11.00
2023-11-23T17:46:06.020Z,9.80
2023-11-23T17:48:35.009Z,10.63
2023-11-23T17:51:01.720Z,9.80
2023-11-23T17:53:29.170Z,9.37
2023-11-23T17:55:55.940Z,13.70
2023-11-23T17:58:22.919Z,9.83
2023-11-23T18:00:50.525Z,9.87
2023-11-23T18:03:18.413Z,10.90
2023-11-23T18:05:45.152Z,11.83
2023-11-23T18:08:11.883Z,9.27
2023-11-23T18:10:39.352Z,10.97
2023-11-23T18:13:06.668Z,9.90
2023-11-23T18:15:34.314Z,13.10
2023-11-23T18:18:09.758Z,10.90
2023-11-23T18:20:41.939Z,9.50
2023-11-23T18:23:08.595Z,11.63
2023-11-23T18:25:37.169Z,11.17
2023-11-23T18:28:03.812Z,11.73
2023-11-23T18:30:30.481Z,11.23
2023-11-23T18:32:57.324Z,9.67
2023-11-23T18:35:24.795Z,9.73
2023-11-23T18:37:51.519Z,12.00
2023-11-23T18:40:22.176Z,10.07
2023-11-23T18:42:54.421Z,10.40
2023-11-23T18:45:21.223Z,9.43
2023-11-23T18:47:48.234Z,10.17
2023-11-23T18:50:16.031Z,10.00
2023-11-23T18:52:42.768Z,10.37
2023-11-23T18:55:16.197Z,10.67
2023-11-23T18:57:43.317Z,11.00
2023-11-23T19:00:10.727Z,11.33
2023-11-23T19:02:42.105Z,10.90
2023-11-23T19:05:09.526Z,10.83
2023-11-23T19:07:36.172Z,12.00
2023-11-23T19:10:03.219Z,10.23
2023-11-23T19:12:31.188Z,10.67
2023-11-23T19:15:02.031Z,9.47
2023-11-23T19:17:29.452Z,11.87
2023-11-23T19:19:56.334Z,10.73
2023-11-23T19:22:23.453Z,10.30
2023-11-23T19:24:52.359Z,9.45
2023-11-23T19:27:24.631Z,9.30
2023-11-23T19:29:51.835Z,10.97
2023-11-23T19:32:24.430Z,11.00
2023-11-23T19:34:54.466Z,10.20
2023-11-23T19:37:22.017Z,9.77
2023-11-23T19:39:49.052Z,9.13
2023-11-23T19:42:16.201Z,9.77
2023-11-23T19:44:43.380Z,10.30
2023-11-23T19:47:10.537Z,11.67
2023-11-23T19:49:37.655Z,9.00
2023-11-23T19:52:14.636Z,10.10
2023-11-23T19:54:41.811Z,11.23
2023-11-23T19:57:09.810Z,11.00
2023-11-23T19:59:36.642Z,10.57
2023-11-23T20:02:04.420Z,10.77
2023-11-23T20:04:32.665Z,9.77
2023-11-23T20:06:59.429Z,11.37
2023-11-23T20:09:26.179Z,11.70
2023-11-23T20:11:54.176Z,10.70
2023-11-23T20:14:20.883Z,9.93
2023-11-23T20:16:47.533Z,12.40
2023-11-23T20:19:14.247Z,11.27
2023-11-23T20:21:41.124Z,9.47
2023-11-23T20:24:08.124Z,10.57
2023-11-23T20:26:34.806Z,11.13
2023-11-23T20:29:01.473Z,10.57
2023-11-23T20:31:29.510Z,9.00
2023-11-23T20:33:56.274Z,10.50
2023-11-23T20:36:23.105Z,10.73
2023-11-23T20:38:50.007Z,9.27
2023-11-23T20:41:16.840Z,12.57
2023-11-23T20:43:43.518Z,9.37
2023-11-23T20:46:13.191Z,7.60
2023-11-23T20:48:40.781Z,9.10
2023-11-23T20:51:07.470Z,10.77
2023-11-23T20:53:34.966Z,9.30
2023-11-23T20:56:02.192Z,8.83
2023-11-23T20:58:29.108Z,9.43
2023-11-23T21:00:58.170Z,10.33
2023-11-23T21:03:26.662Z,10.07
2023-11-23T21:05:53.721Z,8.10
2023-11-23T21:08:20.645Z,8.20
2023-11-23T21:10:49.187Z,8.57
2023-11-23T21:13:16.791Z,10.17
2023-11-23T21:15:44.052Z,8.60
2023-11-23T21:18:11.559Z,11.70
2023-11-23T21:20:40.941Z,11.03
2023-11-23T21:23:07.630Z,8.93
2023-11-23T21:25:36.067Z,11.07
2023-11-23T21:28:03.785Z,9.77
2023-11-23T21:30:30.497Z,10.43
2023-11-23T21:32:57.900Z,9.57
2023-11-23T21:35:27.552Z,9.57
2023-11-23T21:37:54.694Z,10.70
2023-11-23T21:40:23.635Z,8.80
2023-11-23T21:42:51.845Z,8.87
2023-11-23T21:45:22.787Z,9.70
2023-11-23T21:47:50.731Z,8.40
2023-11-23T21:50:18.953Z,11.00
2023-11-23T21:52:47.756Z,8.47
2023-11-23T21:55:15.500Z,8.43
2023-11-23T21:57:43.789Z,10.23
2023-11-23T22:00:13.282Z,10.33
2023-11-23T22:02:43.029Z,9.60
2023-11-23T22:05:10.213Z,10.10
2023-11-23T22:07:37.067Z,8.70
2023-11-23T22:10:04.111Z,8.63
2023-11-23T22:12:30.788Z,9.67
2023-11-23T22:14:57.430Z,9.03
2023-11-23T22:17:24.813Z,9.73
2023-11-23T22:19:51.878Z,8.87
2023-11-23T22:22:21.553Z,8.77
2023-11-23T22:24:48.605Z,10.10
2023-11-23T22:27:15.684Z,10.07
2023-11-23T22:29:42.579Z,9.87
2023-11-23T22:32:09.431Z,10.17
2023-11-23T22:34:36.790Z,11.40
2023-11-23T22:37:05.270Z,10.90
2023-11-23T22:39:37.197Z,10.10
2023-11-23T22:42:04.496Z,12.37
2023-11-23T22:44:31.457Z,11.93
2023-11-23T22:46:58.613Z,10.97
2023-11-23T22:49:32.822Z,12.77
2023-11-23T22:52:05.974Z,10.77
2023-11-23T22:54:35.599Z,11.27
2023-11-23T22:57:04.365Z,11.00
2023-11-23T22:59:32.635Z,11.67
2023-11-23T23:02:00.992Z,10.00
2023-11-23T23:04:29.077Z,12.63
2023-11-23T23:07:00.103Z,10.70
2023-11-23T23:09:30.742Z,11.27
2023-11-23T23:11:58.563Z,10.70
2023-11-23T23:14:36.798Z,13.33
2023-11-23T23:17:03.465Z,11.07
2023-11-23T23:19:30.146Z,12.00
2023-11-23T23:21:57.018Z,11.33
2023-11-23T23:24:23.795Z,11.03
2023-11-23T23:26:50.531Z,11.93
2023-11-23T23:29:18.205Z,11.73
2023-11-23T23:32:47.315Z,12.33
2023-11-23T23:35:14.084Z,13.83
2023-11-23T23:37:40.746Z,12.67
2023-11-23T23:40:08.505Z,11.30
2023-11-23T23:42:35.300Z,11.87
2023-11-23T23:45:02.071Z,11.20
2023-11-23T23:47:28.799Z,10.90
2023-11-23T23:49:55.560Z,12.97
2023-11-23T23:52:22.211Z,12.63
2023-11-23T23:54:50.224Z,10.93
2023-11-23T23:57:17.396Z,11.83
2023-11-23T23:59:44.081Z,11.73
